sensor_id;sensor_type;location;lat;lon;timestamp;temperature;humidity
16655;DHT22;8441;51.344;7.022;2023-07-20T00:00:42;16.90;99.90
16655;DHT22;8441;51.344;7.022;2023-07-20T00:03:12;16.80;99.90
16655;DHT22;8441;51.344;7.022;2023-07-20T00:05:43;16.60;99.90
16655;DHT22;8441;51.344;7.022;2023-07-20T00:08:10;16.50;99.90
16655;DHT22;8441;51.344;7.022;2023-07-20T00:10:37;16.40;99.90
16655;DHT22;8441;51.344;7.022;2023-07-20T00:13:06;16.40;99.90
16655;DHT22;8441;51.344;7.022;2023-07-20T00:15:33;16.40;99.90
16655;DHT22;8441;51.344;7.022;2023-07-20T00:18:00;16.30;99.90
16655;DHT22;8441;51.344;7.022;2023-07-20T00:20:27;16.40;99.90
16655;DHT22;8441;51.344;7.022;2023-07-20T00:22:55;16.40;99.90
16655;DHT22;8441;51.344;7.022;2023-07-20T00:25:23;16.30;99.90
16655;DHT22;8441;51.344;7.022;2023-07-20T00:27:51;16.30;99.90
16655;DHT22;8441;51.344;7.022;2023-07-20T00:30:20;16.20;99.90
16655;DHT22;8441;51.344;7.022;2023-07-20T00:32:47;16.10;99.90
16655;DHT22;8441;51.344;7.022;2023-07-20T00:35:14;16.00;99.90
16655;DHT22;8441;51.344;7.022;2023-07-20T00:37:41;16.00;99.90
16655;DHT22;8441;51.344;7.022;2023-07-20T00:40:09;15.90;99.90
16655;DHT22;8441;51.344;7.022;2023-07-20T00:42:36;15.90;99.90
16655;DHT22;8441;51.344;7.022;2023-07-20T00:45:05;16.10;99.90
16655;DHT22;8441;51.344;7.022;2023-07-20T00:47:33;16.00;99.90
16655;DHT22;8441;51.344;7.022;2023-07-20T00:50:02;15.90;99.90
16655;DHT22;8441;51.344;7.022;2023-07-20T00:52:30;15.90;99.90
16655;DHT22;8441;51.344;7.022;2023-07-20T00:54:57;15.90;99.90
16655;DHT22;8441;51.344;7.022;2023-07-20T00:57:25;15.90;99.90
16655;DHT22;8441;51.344;7.022;2023-07-20T00:59:52;15.80;99.90
16655;DHT22;8441;51.344;7.022;2023-07-20T01:02:20;15.90;99.90
16655;DHT22;8441;51.344;7.022;2023-07-20T01:04:49;15.90;99.90
16655;DHT22;8441;51.344;7.022;2023-07-20T01:07:21;16.00;99.90
16655;DHT22;8441;51.344;7.022;2023-07-20T01:09:56;16.20;99.90
16655;DHT22;8441;51.344;7.022;2023-07-20T01:12:31;16.30;99.90
16655;DHT22;8441;51.344;7.022;2023-07-20T01:15:00;16.40;99.90
16655;DHT22;8441;51.344;7.022;2023-07-20T01:17:27;16.40;99.90
16655;DHT22;8441;51.344;7.022;2023-07-20T01:19:56;16.50;99.90
16655;DHT22;8441;51.344;7.022;2023-07-20T01:22:47;16.40;99.90
16655;DHT22;8441;51.344;7.022;2023-07-20T01:25:30;16.40;99.90
16655;DHT22;8441;51.344;7.022;2023-07-20T01:28:19;16.30;99.90
16655;DHT22;8441;51.344;7.022;2023-07-20T01:30:58;16.30;99.90
16655;DHT22;8441;51.344;7.022;2023-07-20T01:33:30;16.30;99.90
16655;DHT22;8441;51.344;7.022;2023-07-20T01:36:00;16.40;99.90
16655;DHT22;8441;51.344;7.022;2023-07-20T01:38:27;16.50;99.90
16655;DHT22;8441;51.344;7.022;2023-07-20T01:40:55;16.60;99.90
16655;DHT22;8441;51.344;7.022;2023-07-20T01:43:22;16.60;99.90
16655;DHT22;8441;51.344;7.022;2023-07-20T01:45:50;16.50;99.90
16655;DHT22;8441;51.344;7.022;2023-07-20T01:48:24;16.50;99.90
16655;DHT22;8441;51.344;7.022;2023-07-20T01:50:51;16.50;99.90
16655;DHT22;8441;51.344;7.022;2023-07-20T01:53:20;16.40;99.90
16655;DHT22;8441;51.344;7.022;2023-07-20T01:55:48;16.40;99.90
16655;DHT22;8441;51.344;7.022;2023-07-20T01:58:15;16.40;99.90
16655;DHT22;8441;51.344;7.022;2023-07-20T02:00:42;16.30;99.90
16655;DHT22;8441;51.344;7.022;2023-07-20T02:03:09;16.20;99.90
16655;DHT22;8441;51.344;7.022;2023-07-20T02:05:39;16.00;99.90
16655;DHT22;8441;51.344;7.022;2023-07-20T02:08:06;15.90;99.90
16655;DHT22;8441;51.344;7.022;2023-07-20T02:10:33;15.90;99.90
16655;DHT22;8441;51.344;7.022;2023-07-20T02:13:00;15.80;99.90
16655;DHT22;8441;51.344;7.022;2023-07-20T02:15:28;15.80;99.90
16655;DHT22;8441;51.344;7.022;2023-07-20T02:17:55;15.80;99.90
16655;DHT22;8441;51.344;7.022;2023-07-20T02:20:22;15.80;99.90
16655;DHT22;8441;51.344;7.022;2023-07-20T02:22:50;15.80;99.90
16655;DHT22;8441;51.344;7.022;2023-07-20T02:25:18;15.80;99.90
16655;DHT22;8441;51.344;7.022;2023-07-20T02:27:45;15.90;99.90
16655;DHT22;8441;51.344;7.022;2023-07-20T02:30:12;15.90;99.90
16655;DHT22;8441;51.344;7.022;2023-07-20T02:32:39;15.90;99.90
16655;DHT22;8441;51.344;7.022;2023-07-20T02:35:11;15.90;99.90
16655;DHT22;8441;51.344;7.022;2023-07-20T02:37:38;15.80;99.90
16655;DHT22;8441;51.344;7.022;2023-07-20T02:40:08;15.80;99.90
16655;DHT22;8441;51.344;7.022;2023-07-20T02:42:35;15.60;99.90
16655;DHT22;8441;51.344;7.022;2023-07-20T02:45:03;15.60;99.90
16655;DHT22;8441;51.344;7.022;2023-07-20T02:47:31;15.50;99.90
16655;DHT22;8441;51.344;7.022;2023-07-20T02:49:59;15.40;99.90
16655;DHT22;8441;51.344;7.022;2023-07-20T02:52:26;15.40;99.90
16655;DHT22;8441;51.344;7.022;2023-07-20T02:54:55;15.40;99.90
16655;DHT22;8441;51.344;7.022;2023-07-20T02:57:23;15.30;99.90
16655;DHT22;8441;51.344;7.022;2023-07-20T02:59:51;15.30;99.90
16655;DHT22;8441;51.344;7.022;2023-07-20T03:02:18;15.20;99.90
16655;DHT22;8441;51.344;7.022;2023-07-20T03:04:45;15.20;99.90
16655;DHT22;8441;51.344;7.022;2023-07-20T03:07:12;15.10;99.90
16655;DHT22;8441;51.344;7.022;2023-07-20T03:09:39;15.10;99.90
16655;DHT22;8441;51.344;7.022;2023-07-20T03:12:07;15.10;99.90
16655;DHT22;8441;51.344;7.022;2023-07-20T03:14:36;15.10;99.90
16655;DHT22;8441;51.344;7.022;2023-07-20T03:17:04;15.10;99.90
16655;DHT22;8441;51.344;7.022;2023-07-20T03:19:31;15.20;99.90
16655;DHT22;8441;51.344;7.022;2023-07-20T03:21:58;15.20;99.90
16655;DHT22;8441;51.344;7.022;2023-07-20T03:24:26;15.20;99.90
16655;DHT22;8441;51.344;7.022;2023-07-20T03:26:53;15.10;99.90
16655;DHT22;8441;51.344;7.022;2023-07-20T03:29:20;15.10;99.90
16655;DHT22;8441;51.344;7.022;2023-07-20T03:31:48;15.10;99.90
16655;DHT22;8441;51.344;7.022;2023-07-20T03:34:16;15.20;99.90
16655;DHT22;8441;51.344;7.022;2023-07-20T03:36:43;15.20;99.90
16655;DHT22;8441;51.344;7.022;2023-07-20T03:39:10;15.20;99.90
16655;DHT22;8441;51.344;7.022;2023-07-20T03:41:37;15.10;99.90
16655;DHT22;8441;51.344;7.022;2023-07-20T03:44:04;15.00;99.90
16655;DHT22;8441;51.344;7.022;2023-07-20T03:46:32;15.00;99.90
16655;DHT22;8441;51.344;7.022;2023-07-20T03:49:01;15.10;99.90
16655;DHT22;8441;51.344;7.022;2023-07-20T03:51:29;15.10;99.90
16655;DHT22;8441;51.344;7.022;2023-07-20T03:53:56;15.20;99.90
16655;DHT22;8441;51.344;7.022;2023-07-20T03:56:23;15.20;99.90
16655;DHT22;8441;51.344;7.022;2023-07-20T03:58:51;15.20;99.90
16655;DHT22;8441;51.344;7.022;2023-07-20T04:01:18;15.20;99.90
16655;DHT22;8441;51.344;7.022;2023-07-20T04:03:45;15.30;99.90
16655;DHT22;8441;51.344;7.022;2023-07-20T04:06:14;15.30;99.90
16655;DHT22;8441;51.344;7.022;2023-07-20T04:08:42;15.30;99.90
16655;DHT22;8441;51.344;7.022;2023-07-20T04:11:09;15.30;99.90
16655;DHT22;8441;51.344;7.022;2023-07-20T04:13:37;15.30;99.90
16655;DHT22;8441;51.344;7.022;2023-07-20T04:16:05;15.40;99.90
16655;DHT22;8441;51.344;7.022;2023-07-20T04:18:32;15.30;99.90
16655;DHT22;8441;51.344;7.022;2023-07-20T04:20:59;15.40;99.90
16655;DHT22;8441;51.344;7.022;2023-07-20T04:23:27;15.40;99.90
16655;DHT22;8441;51.344;7.022;2023-07-20T04:25:54;15.30;99.90
16655;DHT22;8441;51.344;7.022;2023-07-20T04:28:22;15.40;99.90
16655;DHT22;8441;51.344;7.022;2023-07-20T04:30:49;15.50;99.90
16655;DHT22;8441;51.344;7.022;2023-07-20T04:33:17;15.40;99.90
16655;DHT22;8441;51.344;7.022;2023-07-20T04:35:46;15.50;99.90
16655;DHT22;8441;51.344;7.022;2023-07-20T04:38:14;15.50;99.90
16655;DHT22;8441;51.344;7.022;2023-07-20T04:40:44;15.50;99.90
16655;DHT22;8441;51.344;7.022;2023-07-20T04:43:12;15.50;99.90
16655;DHT22;8441;51.344;7.022;2023-07-20T04:45:39;15.50;99.90
16655;DHT22;8441;51.344;7.022;2023-07-20T04:48:09;15.40;99.90
16655;DHT22;8441;51.344;7.022;2023-07-20T04:50:37;15.40;99.90
16655;DHT22;8441;51.344;7.022;2023-07-20T04:53:04;15.50;99.90
16655;DHT22;8441;51.344;7.022;2023-07-20T04:55:31;15.50;99.90
16655;DHT22;8441;51.344;7.022;2023-07-20T04:58:01;15.50;99.90
16655;DHT22;8441;51.344;7.022;2023-07-20T05:00:29;15.50;99.90
16655;DHT22;8441;51.344;7.022;2023-07-20T05:02:56;15.50;99.90
16655;DHT22;8441;51.344;7.022;2023-07-20T05:05:23;15.40;99.90
16655;DHT22;8441;51.344;7.022;2023-07-20T05:07:51;15.50;99.90
16655;DHT22;8441;51.344;7.022;2023-07-20T05:10:18;15.50;99.90
16655;DHT22;8441;51.344;7.022;2023-07-20T05:12:45;15.50;99.90
16655;DHT22;8441;51.344;7.022;2023-07-20T05:15:14;15.60;99.90
16655;DHT22;8441;51.344;7.022;2023-07-20T05:17:41;15.60;99.90
16655;DHT22;8441;51.344;7.022;2023-07-20T05:20:08;15.60;99.90
16655;DHT22;8441;51.344;7.022;2023-07-20T05:22:38;15.70;99.90
16655;DHT22;8441;51.344;7.022;2023-07-20T05:25:07;15.70;99.90
16655;DHT22;8441;51.344;7.022;2023-07-20T05:27:36;15.80;99.90
16655;DHT22;8441;51.344;7.022;2023-07-20T05:30:04;15.90;99.90
16655;DHT22;8441;51.344;7.022;2023-07-20T05:32:34;16.00;99.90
16655;DHT22;8441;51.344;7.022;2023-07-20T05:35:01;15.90;99.90
16655;DHT22;8441;51.344;7.022;2023-07-20T05:37:29;16.00;99.90
16655;DHT22;8441;51.344;7.022;2023-07-20T05:39:56;16.10;99.90
16655;DHT22;8441;51.344;7.022;2023-07-20T05:42:24;16.30;99.90
16655;DHT22;8441;51.344;7.022;2023-07-20T05:44:51;16.40;99.90
16655;DHT22;8441;51.344;7.022;2023-07-20T05:47:19;16.50;99.90
16655;DHT22;8441;51.344;7.022;2023-07-20T05:49:48;16.50;99.90
16655;DHT22;8441;51.344;7.022;2023-07-20T05:52:15;16.50;99.90
16655;DHT22;8441;51.344;7.022;2023-07-20T05:54:42;16.50;99.90
16655;DHT22;8441;51.344;7.022;2023-07-20T05:57:10;16.50;99.90
16655;DHT22;8441;51.344;7.022;2023-07-20T05:59:37;16.40;99.90
16655;DHT22;8441;51.344;7.022;2023-07-20T06:02:06;16.30;99.90
16655;DHT22;8441;51.344;7.022;2023-07-20T06:04:33;16.40;99.90
16655;DHT22;8441;51.344;7.022;2023-07-20T06:07:02;16.40;99.90
16655;DHT22;8441;51.344;7.022;2023-07-20T06:09:30;16.40;99.90
16655;DHT22;8441;51.344;7.022;2023-07-20T06:11:57;16.50;99.90
16655;DHT22;8441;51.344;7.022;2023-07-20T06:14:24;16.60;99.90
16655;DHT22;8441;51.344;7.022;2023-07-20T06:16:51;16.80;99.90
16655;DHT22;8441;51.344;7.022;2023-07-20T06:19:18;17.00;99.90
16655;DHT22;8441;51.344;7.022;2023-07-20T06:21:45;17.00;99.90
16655;DHT22;8441;51.344;7.022;2023-07-20T06:24:14;16.90;99.90
16655;DHT22;8441;51.344;7.022;2023-07-20T06:26:41;16.80;99.90
16655;DHT22;8441;51.344;7.022;2023-07-20T06:29:08;16.50;99.90
16655;DHT22;8441;51.344;7.022;2023-07-20T06:31:36;16.40;99.90
16655;DHT22;8441;51.344;7.022;2023-07-20T06:34:04;16.40;99.90
16655;DHT22;8441;51.344;7.022;2023-07-20T06:36:31;16.40;99.90
16655;DHT22;8441;51.344;7.022;2023-07-20T06:38:58;16.60;99.90
16655;DHT22;8441;51.344;7.022;2023-07-20T06:41:28;16.90;99.90
16655;DHT22;8441;51.344;7.022;2023-07-20T06:43:55;17.00;99.90
16655;DHT22;8441;51.344;7.022;2023-07-20T06:46:24;17.20;99.90
16655;DHT22;8441;51.344;7.022;2023-07-20T06:48:53;17.20;99.90
16655;DHT22;8441;51.344;7.022;2023-07-20T06:51:20;17.00;99.90
16655;DHT22;8441;51.344;7.022;2023-07-20T06:53:47;17.10;99.90
16655;DHT22;8441;51.344;7.022;2023-07-20T06:56:14;17.20;99.90
16655;DHT22;8441;51.344;7.022;2023-07-20T06:58:43;17.40;99.90
16655;DHT22;8441;51.344;7.022;2023-07-20T07:01:10;17.60;99.90
16655;DHT22;8441;51.344;7.022;2023-07-20T07:03:37;17.70;99.90
16655;DHT22;8441;51.344;7.022;2023-07-20T07:06:04;17.60;99.90
16655;DHT22;8441;51.344;7.022;2023-07-20T07:08:31;17.70;99.90
16655;DHT22;8441;51.344;7.022;2023-07-20T07:10:59;17.80;99.90
16655;DHT22;8441;51.344;7.022;2023-07-20T07:13:26;17.80;99.90
16655;DHT22;8441;51.344;7.022;2023-07-20T07:15:54;17.90;99.90
16655;DHT22;8441;51.344;7.022;2023-07-20T07:18:22;17.90;99.90
16655;DHT22;8441;51.344;7.022;2023-07-20T07:20:51;18.10;99.90
16655;DHT22;8441;51.344;7.022;2023-07-20T07:23:19;18.20;99.90
16655;DHT22;8441;51.344;7.022;2023-07-20T07:25:46;18.20;99.90
16655;DHT22;8441;51.344;7.022;2023-07-20T07:28:13;18.30;99.90
16655;DHT22;8441;51.344;7.022;2023-07-20T07:30:41;17.90;99.90
16655;DHT22;8441;51.344;7.022;2023-07-20T07:33:09;17.90;99.90
16655;DHT22;8441;51.344;7.022;2023-07-20T07:35:36;17.80;99.90
16655;DHT22;8441;51.344;7.022;2023-07-20T07:38:04;17.90;99.90
16655;DHT22;8441;51.344;7.022;2023-07-20T07:40:32;17.70;99.90
16655;DHT22;8441;51.344;7.022;2023-07-20T07:42:59;17.60;99.90
16655;DHT22;8441;51.344;7.022;2023-07-20T07:45:27;17.60;99.90
16655;DHT22;8441;51.344;7.022;2023-07-20T07:47:54;17.70;99.90
16655;DHT22;8441;51.344;7.022;2023-07-20T07:50:22;17.70;99.90
16655;DHT22;8441;51.344;7.022;2023-07-20T07:52:49;18.00;99.90
16655;DHT22;8441;51.344;7.022;2023-07-20T07:55:17;18.20;99.90
16655;DHT22;8441;51.344;7.022;2023-07-20T07:57:44;18.40;99.90
16655;DHT22;8441;51.344;7.022;2023-07-20T08:00:14;18.30;99.90
16655;DHT22;8441;51.344;7.022;2023-07-20T08:02:44;18.40;99.90
16655;DHT22;8441;51.344;7.022;2023-07-20T08:05:12;18.60;99.90
16655;DHT22;8441;51.344;7.022;2023-07-20T08:07:41;18.80;99.90
16655;DHT22;8441;51.344;7.022;2023-07-20T08:10:08;19.30;99.90
16655;DHT22;8441;51.344;7.022;2023-07-20T08:12:35;19.50;99.90
16655;DHT22;8441;51.344;7.022;2023-07-20T08:15:03;19.50;99.90
16655;DHT22;8441;51.344;7.022;2023-07-20T08:17:31;19.20;99.90
16655;DHT22;8441;51.344;7.022;2023-07-20T08:19:58;19.10;99.90
16655;DHT22;8441;51.344;7.022;2023-07-20T08:22:25;19.30;99.90
16655;DHT22;8441;51.344;7.022;2023-07-20T08:24:54;19.30;99.90
16655;DHT22;8441;51.344;7.022;2023-07-20T08:27:21;19.10;99.90
16655;DHT22;8441;51.344;7.022;2023-07-20T08:29:48;19.30;99.90
16655;DHT22;8441;51.344;7.022;2023-07-20T08:32:16;19.40;99.90
16655;DHT22;8441;51.344;7.022;2023-07-20T08:34:43;19.50;99.90
16655;DHT22;8441;51.344;7.022;2023-07-20T08:37:10;19.00;99.90
16655;DHT22;8441;51.344;7.022;2023-07-20T08:39:37;18.80;99.90
16655;DHT22;8441;51.344;7.022;2023-07-20T08:42:06;19.00;99.90
16655;DHT22;8441;51.344;7.022;2023-07-20T08:44:34;19.30;99.90
16655;DHT22;8441;51.344;7.022;2023-07-20T08:47:02;19.60;99.90
16655;DHT22;8441;51.344;7.022;2023-07-20T08:49:31;19.50;99.90
16655;DHT22;8441;51.344;7.022;2023-07-20T08:51:59;19.50;99.90
16655;DHT22;8441;51.344;7.022;2023-07-20T08:54:30;19.50;99.90
16655;DHT22;8441;51.344;7.022;2023-07-20T08:57:01;19.60;99.90
16655;DHT22;8441;51.344;7.022;2023-07-20T08:59:30;19.50;99.90
16655;DHT22;8441;51.344;7.022;2023-07-20T09:01:58;19.40;99.90
16655;DHT22;8441;51.344;7.022;2023-07-20T09:04:26;19.30;99.90
16655;DHT22;8441;51.344;7.022;2023-07-20T09:06:53;19.50;99.90
16655;DHT22;8441;51.344;7.022;2023-07-20T09:09:20;19.70;99.90
16655;DHT22;8441;51.344;7.022;2023-07-20T09:11:48;19.80;99.90
16655;DHT22;8441;51.344;7.022;2023-07-20T09:14:15;20.20;99.90
16655;DHT22;8441;51.344;7.022;2023-07-20T09:16:52;20.40;99.90
16655;DHT22;8441;51.344;7.022;2023-07-20T09:19:20;20.30;99.90
16655;DHT22;8441;51.344;7.022;2023-07-20T09:21:49;19.90;99.90
16655;DHT22;8441;51.344;7.022;2023-07-20T09:24:18;20.00;99.90
16655;DHT22;8441;51.344;7.022;2023-07-20T09:26:46;20.30;99.90
16655;DHT22;8441;51.344;7.022;2023-07-20T09:29:18;20.50;99.90
16655;DHT22;8441;51.344;7.022;2023-07-20T09:31:58;20.40;99.90
16655;DHT22;8441;51.344;7.022;2023-07-20T09:34:26;20.50;99.90
16655;DHT22;8441;51.344;7.022;2023-07-20T09:36:53;19.90;99.90
16655;DHT22;8441;51.344;7.022;2023-07-20T09:39:20;19.90;99.90
16655;DHT22;8441;51.344;7.022;2023-07-20T09:41:47;20.10;99.90
16655;DHT22;8441;51.344;7.022;2023-07-20T09:44:15;20.20;99.90
16655;DHT22;8441;51.344;7.022;2023-07-20T09:46:43;20.60;99.90
16655;DHT22;8441;51.344;7.022;2023-07-20T09:49:12;20.90;99.90
16655;DHT22;8441;51.344;7.022;2023-07-20T09:51:40;21.00;99.90
16655;DHT22;8441;51.344;7.022;2023-07-20T09:54:08;20.90;99.90
16655;DHT22;8441;51.344;7.022;2023-07-20T09:56:36;20.80;99.90
16655;DHT22;8441;51.344;7.022;2023-07-20T09:59:04;20.40;99.90
16655;DHT22;8441;51.344;7.022;2023-07-20T10:01:33;20.50;99.90
16655;DHT22;8441;51.344;7.022;2023-07-20T10:04:03;20.50;99.90
16655;DHT22;8441;51.344;7.022;2023-07-20T10:06:33;20.50;99.90
16655;DHT22;8441;51.344;7.022;2023-07-20T10:09:02;20.80;99.90
16655;DHT22;8441;51.344;7.022;2023-07-20T10:11:35;20.90;99.90
16655;DHT22;8441;51.344;7.022;2023-07-20T10:14:03;20.90;99.90
16655;DHT22;8441;51.344;7.022;2023-07-20T10:16:35;20.90;99.90
16655;DHT22;8441;51.344;7.022;2023-07-20T10:19:05;21.10;99.90
16655;DHT22;8441;51.344;7.022;2023-07-20T10:21:40;21.40;99.90
16655;DHT22;8441;51.344;7.022;2023-07-20T10:24:08;21.70;99.90
16655;DHT22;8441;51.344;7.022;2023-07-20T10:26:37;21.40;99.90
16655;DHT22;8441;51.344;7.022;2023-07-20T10:29:05;20.90;99.90
16655;DHT22;8441;51.344;7.022;2023-07-20T10:31:33;20.50;99.90
16655;DHT22;8441;51.344;7.022;2023-07-20T10:34:01;20.70;99.90
16655;DHT22;8441;51.344;7.022;2023-07-20T10:36:28;21.00;99.90
16655;DHT22;8441;51.344;7.022;2023-07-20T10:38:57;21.50;99.90
16655;DHT22;8441;51.344;7.022;2023-07-20T10:41:28;21.80;99.90
16655;DHT22;8441;51.344;7.022;2023-07-20T10:44:01;21.90;99.90
16655;DHT22;8441;51.344;7.022;2023-07-20T10:46:41;22.00;99.90
16655;DHT22;8441;51.344;7.022;2023-07-20T10:49:10;22.50;99.90
16655;DHT22;8441;51.344;7.022;2023-07-20T10:51:42;22.90;99.90
16655;DHT22;8441;51.344;7.022;2023-07-20T10:54:34;23.00;99.90
16655;DHT22;8441;51.344;7.022;2023-07-20T10:57:30;22.90;99.90
16655;DHT22;8441;51.344;7.022;2023-07-20T11:00:13;22.30;99.90
16655;DHT22;8441;51.344;7.022;2023-07-20T11:02:47;22.20;99.90
16655;DHT22;8441;51.344;7.022;2023-07-20T11:05:36;21.60;99.90
16655;DHT22;8441;51.344;7.022;2023-07-20T11:08:06;21.60;99.90
16655;DHT22;8441;51.344;7.022;2023-07-20T11:10:35;21.50;99.90
16655;DHT22;8441;51.344;7.022;2023-07-20T11:13:18;21.10;99.90
16655;DHT22;8441;51.344;7.022;2023-07-20T11:15:46;21.20;99.90
16655;DHT22;8441;51.344;7.022;2023-07-20T11:18:14;21.30;99.90
16655;DHT22;8441;51.344;7.022;2023-07-20T11:20:41;21.70;99.90
16655;DHT22;8441;51.344;7.022;2023-07-20T11:23:09;21.90;99.90
16655;DHT22;8441;51.344;7.022;2023-07-20T11:25:39;22.20;99.90
16655;DHT22;8441;51.344;7.022;2023-07-20T11:28:07;22.40;99.90
16655;DHT22;8441;51.344;7.022;2023-07-20T11:30:37;22.80;99.90
16655;DHT22;8441;51.344;7.022;2023-07-20T11:33:04;22.80;99.90
16655;DHT22;8441;51.344;7.022;2023-07-20T11:35:35;22.60;99.90
16655;DHT22;8441;51.344;7.022;2023-07-20T11:38:03;22.50;99.90
16655;DHT22;8441;51.344;7.022;2023-07-20T11:40:30;22.20;99.90
16655;DHT22;8441;51.344;7.022;2023-07-20T11:42:59;22.20;99.90
16655;DHT22;8441;51.344;7.022;2023-07-20T11:45:26;22.20;99.90
16655;DHT22;8441;51.344;7.022;2023-07-20T11:47:59;22.20;99.90
16655;DHT22;8441;51.344;7.022;2023-07-20T11:50:28;22.00;99.90
16655;DHT22;8441;51.344;7.022;2023-07-20T11:52:56;22.10;99.90
16655;DHT22;8441;51.344;7.022;2023-07-20T11:55:23;22.00;99.90
16655;DHT22;8441;51.344;7.022;2023-07-20T11:58:04;22.20;99.90
16655;DHT22;8441;51.344;7.022;2023-07-20T12:00:32;21.80;99.90
16655;DHT22;8441;51.344;7.022;2023-07-20T12:03:00;22.10;99.90
16655;DHT22;8441;51.344;7.022;2023-07-20T12:05:27;22.50;99.90
16655;DHT22;8441;51.344;7.022;2023-07-20T12:07:54;22.90;99.90
16655;DHT22;8441;51.344;7.022;2023-07-20T12:10:25;22.90;99.90
16655;DHT22;8441;51.344;7.022;2023-07-20T12:12:54;23.20;99.90
16655;DHT22;8441;51.344;7.022;2023-07-20T12:15:24;23.40;99.90
16655;DHT22;8441;51.344;7.022;2023-07-20T12:17:52;23.50;99.90
16655;DHT22;8441;51.344;7.022;2023-07-20T12:20:27;23.20;99.90
16655;DHT22;8441;51.344;7.022;2023-07-20T12:22:57;22.90;99.90
16655;DHT22;8441;51.344;7.022;2023-07-20T12:25:33;23.00;99.90
16655;DHT22;8441;51.344;7.022;2023-07-20T12:28:01;23.00;99.90
16655;DHT22;8441;51.344;7.022;2023-07-20T12:30:30;23.10;99.90
16655;DHT22;8441;51.344;7.022;2023-07-20T12:32:57;23.00;99.90
16655;DHT22;8441;51.344;7.022;2023-07-20T12:35:25;22.90;99.90
16655;DHT22;8441;51.344;7.022;2023-07-20T12:37:52;22.70;99.90
16655;DHT22;8441;51.344;7.022;2023-07-20T12:40:19;23.00;99.90
16655;DHT22;8441;51.344;7.022;2023-07-20T12:42:46;23.30;99.90
16655;DHT22;8441;51.344;7.022;2023-07-20T12:45:14;23.50;99.90
16655;DHT22;8441;51.344;7.022;2023-07-20T12:47:42;23.80;99.90
16655;DHT22;8441;51.344;7.022;2023-07-20T12:50:10;24.20;99.90
16655;DHT22;8441;51.344;7.022;2023-07-20T12:52:39;24.60;99.80
16655;DHT22;8441;51.344;7.022;2023-07-20T12:55:07;24.70;98.10
16655;DHT22;8441;51.344;7.022;2023-07-20T12:57:35;24.50;98.10
16655;DHT22;8441;51.344;7.022;2023-07-20T13:00:03;24.10;98.40
16655;DHT22;8441;51.344;7.022;2023-07-20T13:02:32;23.90;98.30
16655;DHT22;8441;51.344;7.022;2023-07-20T13:05:01;23.40;98.10
16655;DHT22;8441;51.344;7.022;2023-07-20T13:07:32;23.10;98.90
16655;DHT22;8441;51.344;7.022;2023-07-20T13:09:59;22.90;98.50
16655;DHT22;8441;51.344;7.022;2023-07-20T13:12:27;22.70;99.10
16655;DHT22;8441;51.344;7.022;2023-07-20T13:14:55;22.40;99.70
16655;DHT22;8441;51.344;7.022;2023-07-20T13:17:22;21.90;99.90
16655;DHT22;8441;51.344;7.022;2023-07-20T13:19:51;21.70;99.90
16655;DHT22;8441;51.344;7.022;2023-07-20T13:22:19;21.80;99.90
16655;DHT22;8441;51.344;7.022;2023-07-20T13:24:46;21.80;99.90
16655;DHT22;8441;51.344;7.022;2023-07-20T13:27:14;21.80;99.90
16655;DHT22;8441;51.344;7.022;2023-07-20T13:29:41;21.80;99.90
16655;DHT22;8441;51.344;7.022;2023-07-20T13:32:09;21.90;99.90
16655;DHT22;8441;51.344;7.022;2023-07-20T13:34:37;21.90;99.90
16655;DHT22;8441;51.344;7.022;2023-07-20T13:37:04;22.20;99.90
16655;DHT22;8441;51.344;7.022;2023-07-20T13:39:33;22.30;99.90
16655;DHT22;8441;51.344;7.022;2023-07-20T13:42:00;22.70;99.90
16655;DHT22;8441;51.344;7.022;2023-07-20T13:44:30;23.10;99.90
16655;DHT22;8441;51.344;7.022;2023-07-20T13:46:58;23.50;99.90
16655;DHT22;8441;51.344;7.022;2023-07-20T13:49:25;23.60;99.10
16655;DHT22;8441;51.344;7.022;2023-07-20T13:51:52;23.60;98.70
16655;DHT22;8441;51.344;7.022;2023-07-20T13:54:19;23.30;98.70
16655;DHT22;8441;51.344;7.022;2023-07-20T13:56:48;23.10;99.90
16655;DHT22;8441;51.344;7.022;2023-07-20T13:59:15;23.20;99.40
16655;DHT22;8441;51.344;7.022;2023-07-20T14:01:43;23.30;99.10
16655;DHT22;8441;51.344;7.022;2023-07-20T14:04:10;23.40;99.20
16655;DHT22;8441;51.344;7.022;2023-07-20T14:06:37;23.30;98.90
16655;DHT22;8441;51.344;7.022;2023-07-20T14:09:04;23.30;98.40
16655;DHT22;8441;51.344;7.022;2023-07-20T14:11:31;23.50;98.70
16655;DHT22;8441;51.344;7.022;2023-07-20T14:13:59;23.80;98.10
16655;DHT22;8441;51.344;7.022;2023-07-20T14:16:27;24.00;99.70
16655;DHT22;8441;51.344;7.022;2023-07-20T14:18:54;24.40;98.60
16655;DHT22;8441;51.344;7.022;2023-07-20T14:21:21;24.40;97.60
16655;DHT22;8441;51.344;7.022;2023-07-20T14:23:50;24.50;98.30
16655;DHT22;8441;51.344;7.022;2023-07-20T14:26:18;24.50;97.30
16655;DHT22;8441;51.344;7.022;2023-07-20T14:28:46;24.40;97.70
16655;DHT22;8441;51.344;7.022;2023-07-20T14:31:14;24.50;96.50
16655;DHT22;8441;51.344;7.022;2023-07-20T14:33:41;24.30;96.70
16655;DHT22;8441;51.344;7.022;2023-07-20T14:36:09;24.10;97.10
16655;DHT22;8441;51.344;7.022;2023-07-20T14:38:36;24.20;97.90
16655;DHT22;8441;51.344;7.022;2023-07-20T14:41:03;24.50;97.30
16655;DHT22;8441;51.344;7.022;2023-07-20T14:43:31;24.70;96.10
16655;DHT22;8441;51.344;7.022;2023-07-20T14:45:58;24.80;95.80
16655;DHT22;8441;51.344;7.022;2023-07-20T14:48:27;24.80;95.70
16655;DHT22;8441;51.344;7.022;2023-07-20T14:50:54;25.20;95.60
16655;DHT22;8441;51.344;7.022;2023-07-20T14:53:21;25.40;95.00
16655;DHT22;8441;51.344;7.022;2023-07-20T14:55:48;25.30;95.30
16655;DHT22;8441;51.344;7.022;2023-07-20T14:58:15;25.30;95.30
16655;DHT22;8441;51.344;7.022;2023-07-20T15:00:43;25.30;94.40
16655;DHT22;8441;51.344;7.022;2023-07-20T15:03:11;25.70;94.70
16655;DHT22;8441;51.344;7.022;2023-07-20T15:05:39;25.90;95.60
16655;DHT22;8441;51.344;7.022;2023-07-20T15:08:08;25.70;93.90
16655;DHT22;8441;51.344;7.022;2023-07-20T15:10:35;25.30;94.30
16655;DHT22;8441;51.344;7.022;2023-07-20T15:13:02;25.30;94.00
16655;DHT22;8441;51.344;7.022;2023-07-20T15:15:30;25.20;94.40
16655;DHT22;8441;51.344;7.022;2023-07-20T15:17:58;25.10;94.70
16655;DHT22;8441;51.344;7.022;2023-07-20T15:20:25;24.90;94.40
16655;DHT22;8441;51.344;7.022;2023-07-20T15:22:54;24.90;93.30
16655;DHT22;8441;51.344;7.022;2023-07-20T15:25:21;24.60;93.60
16655;DHT22;8441;51.344;7.022;2023-07-20T15:27:48;24.70;93.40
16655;DHT22;8441;51.344;7.022;2023-07-20T15:30:16;24.60;93.30
16655;DHT22;8441;51.344;7.022;2023-07-20T15:32:43;24.60;93.50
16655;DHT22;8441;51.344;7.022;2023-07-20T15:35:11;24.60;93.00
16655;DHT22;8441;51.344;7.022;2023-07-20T15:37:38;24.60;93.60
16655;DHT22;8441;51.344;7.022;2023-07-20T15:40:08;24.90;92.60
16655;DHT22;8441;51.344;7.022;2023-07-20T15:42:35;24.90;92.80
16655;DHT22;8441;51.344;7.022;2023-07-20T15:45:03;25.10;92.10
16655;DHT22;8441;51.344;7.022;2023-07-20T15:47:30;24.90;91.70
16655;DHT22;8441;51.344;7.022;2023-07-20T15:49:57;25.30;91.80
16655;DHT22;8441;51.344;7.022;2023-07-20T15:52:25;25.60;92.60